KBNL

Barnwell Regional Airport

Barnwell, South Carolina, USA
METAR KBNL 182135Z AUTO 22005G13KT 10SM FEW050 FEW055 32/22 A2996 RMK AO2 LTG DSNT SE AND SW AND NW
Observed Flight Rules
Aug-18 @ 21:35 UTC (20 minutes ago) Visual Flight Rules
Wind Visibility Clouds
220° at 5 knots
 Gusting to 13 knots
10 miles
  • Few at 5,000' AGL
  • Few at 5,500' AGL
Temperatures Readings
Current 32°C / 90°F
Dewpoint 22°C / 72°F
Humidity 55%
Altimeter 29.96" Hg
Pressure 1015 hPa
Elevation 75
METAR KBNL 182135Z AUTO 22005G13KT 10SM FEW050 FEW055 32/22 A2996 RMK AO2 LTG DSNT SE AND SW AND NW
Observed Flight Rules
Aug-18 @ 21:35 UTC
(20 minutes ago)
VFR
Wind Visibility
220° at 5 knots
 Gusting to 13 knots
10 miles
Clouds
  • Few at 5,000' AGL
  • Few at 5,500' AGL
Temperature Dewpoint
32°C / 90°F 22°C / 72°F
Humidity Altimeter Pressure
55% 29.96" Hg 1015 hPa